TSC894 CYUL-TFFR
Flight info
| Callsign | TSC894 |
|---|---|
| Flight time | N/A |
| Altitude | 34000 |
| Route | FAWNS DCT BUGSY DCT PONCT DCT JFK/N0452F350 DCT SHIPP Y483 SHERL DCT ICCEY Y488 OHRYN DCT SQUAD/M077F350 DCT DARUX L459 DASER DCT PIREX L462 KOZIK/M077F370 L462 DAWIN/N0449F370 L462 LAMKN/N0384F230 L462 ANU A312 KASKI KASKI2A |
| Aircraft | A321/M-SDE3FGHIRWY/LB1 |
Departure
| Time | N/A |
|---|---|
| Airport | Montreal / Pierre Elliott Trudeau International Airport (CYUL) |
Arrival
| Time | 2026-05-03 22:49 |
|---|---|
| Airport | Maryse Condé International Airport (TFFR) |
| Time | Latitude | Longitude | Altitude | Speed | Heading |
|---|---|---|---|---|---|
| 2026-05-03 20:45 | 30.49613 | -65.05379 | 35057 ft | 476 kts | 159° |
| 2026-05-03 20:46 | 30.43861 | -65.01561 | 35058 ft | 476 kts | 159° |
| 2026-05-03 20:46 | 30.38105 | -64.97759 | 35059 ft | 476 kts | 159° |
| 2026-05-03 20:47 | 30.32340 | -64.93969 | 35063 ft | 476 kts | 159° |
| 2026-05-03 20:47 | 30.26582 | -64.90176 | 35063 ft | 476 kts | 159° |
| 2026-05-03 20:48 | 30.20824 | -64.86390 | 35065 ft | 476 kts | 159° |
| 2026-05-03 20:48 | 30.15064 | -64.82611 | 35064 ft | 476 kts | 159° |
| 2026-05-03 20:49 | 30.09306 | -64.78842 | 35068 ft | 476 kts | 158° |
| 2026-05-03 20:49 | 30.03551 | -64.75070 | 35068 ft | 476 kts | 158° |
| 2026-05-03 20:50 | 29.97796 | -64.71297 | 35074 ft | 476 kts | 158° |
| 2026-05-03 20:50 | 29.92042 | -64.67533 | 35077 ft | 475 kts | 158° |
| 2026-05-03 20:51 | 29.86285 | -64.63786 | 35082 ft | 475 kts | 158° |
| 2026-05-03 20:51 | 29.80530 | -64.60038 | 35079 ft | 475 kts | 158° |
| 2026-05-03 20:52 | 29.74773 | -64.56292 | 35087 ft | 475 kts | 158° |
| 2026-05-03 20:52 | 29.69011 | -64.52549 | 35082 ft | 475 kts | 158° |
| 2026-05-03 20:53 | 29.63254 | -64.48805 | 35088 ft | 476 kts | 158° |
| 2026-05-03 20:53 | 29.57491 | -64.45063 | 35094 ft | 476 kts | 158° |
| 2026-05-03 20:54 | 29.51723 | -64.41339 | 35099 ft | 476 kts | 158° |
| 2026-05-03 20:54 | 29.43102 | -64.35772 | 35094 ft | 476 kts | 157° |
| 2026-05-03 20:55 | 29.37220 | -64.32370 | 35099 ft | 467 kts | 167° |
| 2026-05-03 20:55 | 29.30996 | -64.30652 | 35097 ft | 459 kts | 176° |
| 2026-05-03 20:56 | 29.24726 | -64.29240 | 35098 ft | 460 kts | 176° |
| 2026-05-03 20:56 | 29.18452 | -64.27804 | 35101 ft | 460 kts | 175° |
| 2026-05-03 20:57 | 29.12172 | -64.26370 | 35101 ft | 460 kts | 175° |
| 2026-05-03 20:57 | 29.05885 | -64.24943 | 35099 ft | 461 kts | 176° |
| 2026-05-03 20:58 | 28.99589 | -64.23529 | 35106 ft | 462 kts | 176° |
| 2026-05-03 20:58 | 28.93286 | -64.22103 | 35108 ft | 462 kts | 175° |
| 2026-05-03 20:59 | 28.86978 | -64.20675 | 35109 ft | 462 kts | 175° |
| 2026-05-03 20:59 | 28.80668 | -64.19258 | 35107 ft | 462 kts | 175° |
| 2026-05-03 21:00 | 28.76448 | -64.18314 | 35108 ft | 462 kts | 175° |
| 2026-05-03 21:00 | 28.68040 | -64.16417 | 35111 ft | 463 kts | 175° |
| 2026-05-03 21:01 | 28.61722 | -64.14992 | 35104 ft | 463 kts | 175° |
| 2026-05-03 21:01 | 28.55396 | -64.13580 | 35110 ft | 464 kts | 175° |
| 2026-05-03 21:02 | 28.49064 | -64.12164 | 35114 ft | 464 kts | 175° |
| 2026-05-03 21:02 | 28.42728 | -64.10741 | 35126 ft | 464 kts | 175° |
| 2026-05-03 21:03 | 28.36388 | -64.09316 | 35110 ft | 464 kts | 175° |
| 2026-05-03 21:03 | 28.30051 | -64.07894 | 35124 ft | 464 kts | 175° |
| 2026-05-03 21:04 | 28.23705 | -64.06483 | 35118 ft | 465 kts | 175° |
| 2026-05-03 21:04 | 28.17360 | -64.05080 | 35120 ft | 465 kts | 175° |
| 2026-05-03 21:05 | 28.11005 | -64.03675 | 35120 ft | 465 kts | 175° |
| 2026-05-03 21:05 | 28.04648 | -64.02251 | 35124 ft | 466 kts | 175° |
| 2026-05-03 21:06 | 27.98289 | -64.00835 | 35124 ft | 466 kts | 175° |
| 2026-05-03 21:06 | 27.91925 | -63.99422 | 35122 ft | 466 kts | 174° |
| 2026-05-03 21:07 | 27.85561 | -63.98019 | 35125 ft | 466 kts | 174° |
| 2026-05-03 21:07 | 27.79197 | -63.96609 | 35121 ft | 466 kts | 174° |
| 2026-05-03 21:08 | 27.72835 | -63.95197 | 35123 ft | 466 kts | 174° |
| 2026-05-03 21:08 | 27.66471 | -63.93799 | 35126 ft | 466 kts | 174° |
| 2026-05-03 21:09 | 27.60109 | -63.92403 | 35125 ft | 466 kts | 174° |
| 2026-05-03 21:09 | 27.53744 | -63.91003 | 35124 ft | 466 kts | 174° |
| 2026-05-03 21:10 | 27.47377 | -63.89605 | 35123 ft | 466 kts | 174° |
| 2026-05-03 21:10 | 27.41005 | -63.88208 | 35127 ft | 466 kts | 174° |
| 2026-05-03 21:11 | 27.34639 | -63.86806 | 35125 ft | 466 kts | 174° |
| 2026-05-03 21:11 | 27.28274 | -63.85399 | 35130 ft | 466 kts | 174° |
| 2026-05-03 21:12 | 27.22977 | -63.84242 | 35130 ft | 467 kts | 174° |
| 2026-05-03 21:12 | 27.16600 | -63.82860 | 35131 ft | 467 kts | 174° |
| 2026-05-03 21:13 | 27.10225 | -63.81468 | 35133 ft | 467 kts | 174° |
| 2026-05-03 21:13 | 27.03849 | -63.80069 | 35131 ft | 467 kts | 173° |
| 2026-05-03 21:14 | 26.97474 | -63.78681 | 35132 ft | 467 kts | 173° |
| 2026-05-03 21:14 | 26.91101 | -63.77295 | 35131 ft | 467 kts | 173° |
| 2026-05-03 21:15 | 26.84722 | -63.75902 | 35134 ft | 467 kts | 173° |
| 2026-05-03 21:15 | 26.78344 | -63.74522 | 35133 ft | 467 kts | 173° |
| 2026-05-03 21:16 | 26.71964 | -63.73149 | 35132 ft | 467 kts | 173° |
| 2026-05-03 21:16 | 26.65584 | -63.71767 | 35134 ft | 467 kts | 173° |
| 2026-05-03 21:17 | 26.59201 | -63.70381 | 35135 ft | 467 kts | 173° |
| 2026-05-03 21:17 | 26.52814 | -63.69002 | 35136 ft | 468 kts | 173° |
| 2026-05-03 21:18 | 26.46425 | -63.67623 | 35134 ft | 468 kts | 173° |
| 2026-05-03 21:18 | 26.40038 | -63.66241 | 35137 ft | 468 kts | 173° |
| 2026-05-03 21:19 | 26.33645 | -63.64872 | 35135 ft | 468 kts | 173° |
| 2026-05-03 21:19 | 26.27253 | -63.63509 | 35136 ft | 468 kts | 173° |
| 2026-05-03 21:20 | 26.20855 | -63.62130 | 35139 ft | 468 kts | 173° |
| 2026-05-03 21:20 | 26.14451 | -63.60749 | 35139 ft | 469 kts | 173° |
| 2026-05-03 21:21 | 26.08045 | -63.59375 | 35133 ft | 469 kts | 173° |
| 2026-05-03 21:21 | 26.01641 | -63.58008 | 35135 ft | 469 kts | 173° |
| 2026-05-03 21:22 | 25.95279 | -63.56644 | 35139 ft | 469 kts | 172° |
| 2026-05-03 21:22 | 25.88830 | -63.55266 | 35135 ft | 469 kts | 172° |
| 2026-05-03 21:23 | 25.82427 | -63.53894 | 35140 ft | 469 kts | 172° |
| 2026-05-03 21:23 | 25.76015 | -63.52520 | 35136 ft | 469 kts | 172° |
| 2026-05-03 21:24 | 25.69646 | -63.51170 | 35138 ft | 469 kts | 172° |
| 2026-05-03 21:24 | 25.63186 | -63.49803 | 35136 ft | 470 kts | 172° |
| 2026-05-03 21:25 | 25.56811 | -63.48449 | 35136 ft | 470 kts | 172° |
| 2026-05-03 21:25 | 25.50393 | -63.47076 | 35136 ft | 470 kts | 172° |
| 2026-05-03 21:26 | 25.43972 | -63.45711 | 35138 ft | 470 kts | 172° |
| 2026-05-03 21:26 | 25.37545 | -63.44360 | 35137 ft | 470 kts | 172° |
| 2026-05-03 21:27 | 25.31119 | -63.43001 | 35138 ft | 470 kts | 172° |
| 2026-05-03 21:27 | 25.24691 | -63.41639 | 35135 ft | 470 kts | 172° |
| 2026-05-03 21:28 | 25.18265 | -63.40280 | 35135 ft | 470 kts | 172° |
| 2026-05-03 21:28 | 25.11793 | -63.38919 | 35135 ft | 470 kts | 172° |
| 2026-05-03 21:29 | 25.05405 | -63.37577 | 35137 ft | 470 kts | 172° |
| 2026-05-03 21:29 | 24.98975 | -63.36224 | 35138 ft | 470 kts | 172° |
| 2026-05-03 21:30 | 24.92548 | -63.34870 | 35139 ft | 470 kts | 172° |
| 2026-05-03 21:30 | 24.86118 | -63.33517 | 35136 ft | 470 kts | 172° |
| 2026-05-03 21:31 | 24.79686 | -63.32172 | 35132 ft | 470 kts | 172° |
| 2026-05-03 21:31 | 24.73257 | -63.30829 | 35130 ft | 470 kts | 172° |
| 2026-05-03 21:32 | 24.66827 | -63.29480 | 35144 ft | 470 kts | 172° |
| 2026-05-03 21:32 | 24.60401 | -63.28126 | 35132 ft | 470 kts | 171° |
| 2026-05-03 21:33 | 24.53971 | -63.26778 | 35130 ft | 470 kts | 172° |
| 2026-05-03 21:33 | 24.47538 | -63.25444 | 35137 ft | 471 kts | 171° |
| 2026-05-03 21:34 | 24.41106 | -63.24103 | 35132 ft | 470 kts | 171° |
| 2026-05-03 21:34 | 24.34674 | -63.22767 | 35132 ft | 470 kts | 171° |
| 2026-05-03 21:35 | 24.28244 | -63.21432 | 35140 ft | 470 kts | 171° |
| 2026-05-03 21:35 | 24.21815 | -63.20095 | 35139 ft | 470 kts | 171° |
| 2026-05-03 21:36 | 24.15381 | -63.18751 | 35136 ft | 470 kts | 171° |
| 2026-05-03 21:36 | 24.08949 | -63.17416 | 35140 ft | 470 kts | 171° |
| 2026-05-03 21:37 | 24.02519 | -63.16078 | 35134 ft | 470 kts | 171° |
| 2026-05-03 21:37 | 23.96090 | -63.14743 | 35130 ft | 470 kts | 171° |
| 2026-05-03 21:38 | 23.89654 | -63.13426 | 35139 ft | 470 kts | 171° |
| 2026-05-03 21:38 | 23.83218 | -63.12104 | 35130 ft | 470 kts | 171° |
| 2026-05-03 21:39 | 23.76787 | -63.10771 | 35130 ft | 470 kts | 171° |
| 2026-05-03 21:39 | 23.70355 | -63.09449 | 35134 ft | 470 kts | 171° |
| 2026-05-03 21:40 | 23.63924 | -63.08127 | 35129 ft | 470 kts | 171° |
| 2026-05-03 21:40 | 23.57489 | -63.06799 | 35130 ft | 470 kts | 171° |
| 2026-05-03 21:41 | 23.51058 | -63.05475 | 35128 ft | 470 kts | 171° |
| 2026-05-03 21:41 | 23.44625 | -63.04157 | 35126 ft | 470 kts | 171° |
| 2026-05-03 21:42 | 23.38196 | -63.02843 | 35130 ft | 470 kts | 171° |
| 2026-05-03 21:42 | 23.31768 | -63.01526 | 35131 ft | 470 kts | 171° |
| 2026-05-03 21:43 | 23.25384 | -63.00217 | 35127 ft | 470 kts | 171° |
| 2026-05-03 21:43 | 23.18958 | -62.98902 | 35125 ft | 470 kts | 171° |
| 2026-05-03 21:44 | 23.12534 | -62.97592 | 35127 ft | 470 kts | 171° |
| 2026-05-03 21:44 | 23.06110 | -62.96284 | 35128 ft | 469 kts | 171° |
| 2026-05-03 21:45 | 22.99689 | -62.94969 | 35128 ft | 469 kts | 171° |
| 2026-05-03 21:45 | 22.93270 | -62.93653 | 35124 ft | 469 kts | 171° |
| 2026-05-03 21:46 | 22.86849 | -62.92351 | 35128 ft | 469 kts | 171° |
| 2026-05-03 21:46 | 22.80432 | -62.91050 | 35122 ft | 469 kts | 171° |
| 2026-05-03 21:47 | 22.74019 | -62.89745 | 35123 ft | 469 kts | 171° |
| 2026-05-03 21:47 | 22.67604 | -62.88443 | 35151 ft | 469 kts | 171° |
| 2026-05-03 21:48 | 22.64398 | -62.87795 | 35359 ft | 469 kts | 171° |
| 2026-05-03 21:48 | 22.61188 | -62.87146 | 35558 ft | 469 kts | 171° |
| 2026-05-03 21:48 | 22.57983 | -62.86498 | 35751 ft | 469 kts | 171° |
| 2026-05-03 21:48 | 22.54774 | -62.85846 | 35936 ft | 469 kts | 171° |
| 2026-05-03 21:49 | 22.51566 | -62.85193 | 36117 ft | 469 kts | 171° |
| 2026-05-03 21:49 | 22.48355 | -62.84544 | 36295 ft | 469 kts | 171° |
| 2026-05-03 21:49 | 22.45143 | -62.83897 | 36464 ft | 470 kts | 171° |
| 2026-05-03 21:49 | 22.41930 | -62.83250 | 36628 ft | 470 kts | 171° |
| 2026-05-03 21:50 | 22.38715 | -62.82603 | 36804 ft | 470 kts | 171° |
| 2026-05-03 21:50 | 22.35500 | -62.81956 | 36952 ft | 470 kts | 171° |
| 2026-05-03 21:50 | 22.32287 | -62.81309 | 37093 ft | 470 kts | 171° |
| 2026-05-03 21:50 | 22.29077 | -62.80660 | 37123 ft | 468 kts | 170° |
| 2026-05-03 21:51 | 22.22684 | -62.79362 | 37119 ft | 467 kts | 171° |
| 2026-05-03 21:51 | 22.16302 | -62.78079 | 37125 ft | 466 kts | 171° |
| 2026-05-03 21:52 | 22.09923 | -62.76805 | 37117 ft | 466 kts | 171° |
| 2026-05-03 21:52 | 22.03546 | -62.75522 | 37115 ft | 466 kts | 171° |
| 2026-05-03 21:53 | 21.97167 | -62.74242 | 37126 ft | 466 kts | 170° |
| 2026-05-03 21:53 | 21.90784 | -62.72960 | 37129 ft | 467 kts | 170° |
| 2026-05-03 21:54 | 21.84395 | -62.71676 | 37124 ft | 467 kts | 170° |
| 2026-05-03 21:54 | 21.78002 | -62.70399 | 37131 ft | 468 kts | 170° |
| 2026-05-03 21:55 | 21.72687 | -62.69328 | 37129 ft | 468 kts | 170° |
| 2026-05-03 21:55 | 21.66289 | -62.68042 | 37133 ft | 468 kts | 170° |
| 2026-05-03 21:56 | 21.59890 | -62.66765 | 37137 ft | 467 kts | 170° |
| 2026-05-03 21:56 | 21.53494 | -62.65496 | 37137 ft | 467 kts | 171° |
| 2026-05-03 21:57 | 21.47102 | -62.64228 | 37130 ft | 467 kts | 170° |
| 2026-05-03 21:57 | 21.40711 | -62.62947 | 37130 ft | 467 kts | 170° |
| 2026-05-03 21:58 | 21.34320 | -62.61672 | 37126 ft | 467 kts | 170° |
| 2026-05-03 21:58 | 21.27927 | -62.60402 | 37124 ft | 467 kts | 170° |
| 2026-05-03 21:59 | 21.21533 | -62.59128 | 37125 ft | 467 kts | 170° |
| 2026-05-03 21:59 | 21.15136 | -62.57865 | 37128 ft | 467 kts | 170° |
| 2026-05-03 22:00 | 21.08739 | -62.56597 | 37126 ft | 467 kts | 170° |
| 2026-05-03 22:00 | 21.02390 | -62.55333 | 37126 ft | 467 kts | 170° |
| 2026-05-03 22:01 | 20.95991 | -62.54060 | 37133 ft | 468 kts | 170° |
| 2026-05-03 22:01 | 20.89592 | -62.52798 | 37130 ft | 468 kts | 170° |
| 2026-05-03 22:02 | 20.83190 | -62.51542 | 37123 ft | 468 kts | 170° |
| 2026-05-03 22:02 | 20.76787 | -62.50275 | 37125 ft | 468 kts | 170° |
| 2026-05-03 22:03 | 20.70389 | -62.49011 | 37130 ft | 468 kts | 170° |
| 2026-05-03 22:03 | 20.63996 | -62.47749 | 37128 ft | 467 kts | 170° |
| 2026-05-03 22:04 | 20.57604 | -62.46489 | 37125 ft | 467 kts | 170° |
| 2026-05-03 22:04 | 20.51217 | -62.45236 | 37123 ft | 467 kts | 170° |
| 2026-05-03 22:05 | 20.44823 | -62.43982 | 37120 ft | 467 kts | 170° |
| 2026-05-03 22:05 | 20.38429 | -62.42725 | 37124 ft | 468 kts | 170° |
| 2026-05-03 22:06 | 20.32025 | -62.41469 | 37125 ft | 468 kts | 170° |
| 2026-05-03 22:06 | 20.25623 | -62.40211 | 37126 ft | 468 kts | 170° |
| 2026-05-03 22:07 | 20.19220 | -62.38952 | 37125 ft | 468 kts | 170° |
| 2026-05-03 22:07 | 20.12817 | -62.37695 | 37120 ft | 468 kts | 170° |
| 2026-05-03 22:08 | 20.06418 | -62.36444 | 37122 ft | 468 kts | 170° |
| 2026-05-03 22:08 | 20.00017 | -62.35198 | 37118 ft | 467 kts | 170° |
| 2026-05-03 22:09 | 19.93618 | -62.33954 | 37114 ft | 467 kts | 170° |
| 2026-05-03 22:10 | 19.84028 | -62.32073 | 37111 ft | 467 kts | 170° |
| 2026-05-03 22:10 | 19.77636 | -62.30829 | 37113 ft | 467 kts | 170° |
| 2026-05-03 22:11 | 19.71246 | -62.29583 | 37109 ft | 467 kts | 170° |
| 2026-05-03 22:11 | 19.64855 | -62.28343 | 37111 ft | 467 kts | 170° |
| 2026-05-03 22:12 | 19.58466 | -62.27109 | 37107 ft | 467 kts | 170° |
| 2026-05-03 22:12 | 19.52080 | -62.25866 | 37100 ft | 467 kts | 170° |
| 2026-05-03 22:13 | 19.45695 | -62.24621 | 37099 ft | 466 kts | 170° |
| 2026-05-03 22:13 | 19.39309 | -62.23387 | 37096 ft | 466 kts | 170° |
| 2026-05-03 22:14 | 19.32971 | -62.22157 | 37099 ft | 465 kts | 170° |
| 2026-05-03 22:14 | 19.26616 | -62.20928 | 36735 ft | 464 kts | 170° |
| 2026-05-03 22:14 | 19.23447 | -62.20313 | 36418 ft | 463 kts | 170° |
| 2026-05-03 22:15 | 19.20279 | -62.19695 | 36130 ft | 462 kts | 170° |
| 2026-05-03 22:15 | 19.13962 | -62.18469 | 36088 ft | 462 kts | 170° |
| 2026-05-03 22:16 | 19.07628 | -62.17251 | 36083 ft | 463 kts | 170° |
| 2026-05-03 22:16 | 19.01296 | -62.16032 | 36088 ft | 463 kts | 170° |
| 2026-05-03 22:17 | 18.94961 | -62.14805 | 36083 ft | 463 kts | 170° |
| 2026-05-03 22:17 | 18.88627 | -62.13575 | 36085 ft | 463 kts | 170° |
| 2026-05-03 22:18 | 18.82289 | -62.12353 | 36087 ft | 463 kts | 170° |
| 2026-05-03 22:18 | 18.75952 | -62.11140 | 36087 ft | 463 kts | 170° |
| 2026-05-03 22:19 | 18.69608 | -62.09928 | 36091 ft | 463 kts | 170° |
| 2026-05-03 22:19 | 18.63266 | -62.08705 | 36084 ft | 463 kts | 170° |
| 2026-05-03 22:20 | 18.56922 | -62.07482 | 36087 ft | 463 kts | 170° |
| 2026-05-03 22:20 | 18.50582 | -62.06267 | 36090 ft | 463 kts | 170° |
| 2026-05-03 22:21 | 18.44237 | -62.05052 | 36082 ft | 463 kts | 170° |
| 2026-05-03 22:21 | 18.37897 | -62.03834 | 36083 ft | 463 kts | 170° |
| 2026-05-03 22:22 | 18.31558 | -62.02629 | 36081 ft | 463 kts | 170° |
| 2026-05-03 22:22 | 18.25220 | -62.01415 | 36081 ft | 463 kts | 170° |
| 2026-05-03 22:23 | 18.18875 | -62.00200 | 35725 ft | 466 kts | 171° |
| 2026-05-03 22:23 | 18.15673 | -61.99591 | 35034 ft | 467 kts | 170° |
| 2026-05-03 22:23 | 18.12484 | -61.98984 | 34457 ft | 465 kts | 170° |
| 2026-05-03 22:23 | 18.09301 | -61.98378 | 33833 ft | 464 kts | 170° |
| 2026-05-03 22:24 | 18.06128 | -61.97773 | 33227 ft | 462 kts | 170° |
| 2026-05-03 22:24 | 18.02980 | -61.97169 | 32640 ft | 459 kts | 170° |
| 2026-05-03 22:24 | 17.99850 | -61.96570 | 32063 ft | 456 kts | 170° |
| 2026-05-03 22:24 | 17.96739 | -61.95977 | 31502 ft | 453 kts | 171° |
| 2026-05-03 22:25 | 17.93648 | -61.95388 | 30948 ft | 450 kts | 171° |
| 2026-05-03 22:25 | 17.90579 | -61.94801 | 30390 ft | 447 kts | 171° |
| 2026-05-03 22:25 | 17.87528 | -61.94218 | 29792 ft | 444 kts | 171° |
| 2026-05-03 22:25 | 17.84519 | -61.93644 | 29253 ft | 439 kts | 171° |
| 2026-05-03 22:26 | 17.81520 | -61.93075 | 28712 ft | 433 kts | 171° |
| 2026-05-03 22:26 | 17.78569 | -61.92518 | 28220 ft | 428 kts | 171° |
| 2026-05-03 22:26 | 17.75666 | -61.91971 | 27747 ft | 422 kts | 171° |
| 2026-05-03 22:26 | 17.72795 | -61.91428 | 27226 ft | 417 kts | 171° |
| 2026-05-03 22:27 | 17.69960 | -61.90890 | 26743 ft | 411 kts | 171° |
| 2026-05-03 22:27 | 17.67164 | -61.90355 | 26249 ft | 406 kts | 171° |
| 2026-05-03 22:27 | 17.64410 | -61.89828 | 25784 ft | 400 kts | 171° |
| 2026-05-03 22:27 | 17.61693 | -61.89309 | 25315 ft | 395 kts | 171° |
| 2026-05-03 22:28 | 17.59007 | -61.88797 | 24880 ft | 390 kts | 172° |
| 2026-05-03 22:28 | 17.56351 | -61.88292 | 24434 ft | 386 kts | 172° |
| 2026-05-03 22:28 | 17.53721 | -61.87792 | 23988 ft | 383 kts | 172° |
| 2026-05-03 22:28 | 17.51112 | -61.87298 | 23529 ft | 379 kts | 172° |
| 2026-05-03 22:29 | 17.48530 | -61.86809 | 23041 ft | 375 kts | 172° |
| 2026-05-03 22:29 | 17.45979 | -61.86325 | 22604 ft | 370 kts | 172° |
| 2026-05-03 22:29 | 17.43460 | -61.85848 | 22165 ft | 366 kts | 172° |
| 2026-05-03 22:29 | 17.40972 | -61.85379 | 21721 ft | 362 kts | 172° |
| 2026-05-03 22:30 | 17.38508 | -61.84912 | 21279 ft | 358 kts | 172° |
| 2026-05-03 22:30 | 17.36068 | -61.84446 | 20841 ft | 355 kts | 172° |
| 2026-05-03 22:30 | 17.33648 | -61.83986 | 20402 ft | 352 kts | 172° |
| 2026-05-03 22:30 | 17.31248 | -61.83533 | 19959 ft | 349 kts | 172° |
| 2026-05-03 22:31 | 17.28865 | -61.83085 | 19536 ft | 347 kts | 171° |
| 2026-05-03 22:31 | 17.26500 | -61.82639 | 19100 ft | 344 kts | 171° |
| 2026-05-03 22:31 | 17.24182 | -61.82201 | 18681 ft | 342 kts | 171° |
| 2026-05-03 22:31 | 17.21847 | -61.81758 | 18249 ft | 340 kts | 170° |
| 2026-05-03 22:32 | 17.19527 | -61.81318 | 17794 ft | 337 kts | 170° |
| 2026-05-03 22:32 | 17.17236 | -61.80885 | 17378 ft | 333 kts | 170° |
| 2026-05-03 22:32 | 17.14970 | -61.80456 | 16973 ft | 329 kts | 170° |
| 2026-05-03 22:32 | 17.12724 | -61.80022 | 16574 ft | 327 kts | 167° |
| 2026-05-03 22:33 | 17.10541 | -61.79394 | 16180 ft | 325 kts | 164° |
| 2026-05-03 22:33 | 17.08378 | -61.78738 | 15857 ft | 322 kts | 163° |
| 2026-05-03 22:33 | 17.06217 | -61.78083 | 15434 ft | 325 kts | 163° |
| 2026-05-03 22:33 | 17.04047 | -61.77426 | 14987 ft | 324 kts | 163° |
| 2026-05-03 22:34 | 17.01892 | -61.76773 | 14584 ft | 321 kts | 163° |
| 2026-05-03 22:34 | 16.99751 | -61.76124 | 14197 ft | 319 kts | 163° |
| 2026-05-03 22:34 | 16.97625 | -61.75480 | 13792 ft | 317 kts | 163° |
| 2026-05-03 22:34 | 16.95511 | -61.74839 | 13370 ft | 315 kts | 163° |
| 2026-05-03 22:35 | 16.93418 | -61.74204 | 12971 ft | 312 kts | 163° |
| 2026-05-03 22:35 | 16.91344 | -61.73576 | 12580 ft | 309 kts | 163° |
| 2026-05-03 22:35 | 16.89286 | -61.72954 | 12183 ft | 307 kts | 163° |
| 2026-05-03 22:35 | 16.87240 | -61.72335 | 11788 ft | 305 kts | 162° |
| 2026-05-03 22:36 | 16.85211 | -61.71722 | 11397 ft | 303 kts | 162° |
| 2026-05-03 22:36 | 16.83194 | -61.71113 | 11000 ft | 301 kts | 162° |
| 2026-05-03 22:36 | 16.81191 | -61.70507 | 10604 ft | 299 kts | 162° |
| 2026-05-03 22:36 | 16.79206 | -61.69906 | 10272 ft | 294 kts | 162° |
| 2026-05-03 22:37 | 16.77242 | -61.69313 | 10186 ft | 294 kts | 162° |
| 2026-05-03 22:37 | 16.75273 | -61.68718 | 10059 ft | 294 kts | 162° |
| 2026-05-03 22:37 | 16.73305 | -61.68122 | 9701 ft | 296 kts | 162° |
| 2026-05-03 22:37 | 16.71308 | -61.67610 | 9268 ft | 295 kts | 170° |
| 2026-05-03 22:38 | 16.69259 | -61.67599 | 8843 ft | 294 kts | 183° |
| 2026-05-03 22:38 | 16.67219 | -61.67818 | 8376 ft | 293 kts | 183° |
| 2026-05-03 22:38 | 16.65192 | -61.68031 | 7933 ft | 292 kts | 183° |
| 2026-05-03 22:38 | 16.63183 | -61.68240 | 7492 ft | 290 kts | 183° |
| 2026-05-03 22:39 | 16.61177 | -61.68449 | 7115 ft | 287 kts | 182° |
| 2026-05-03 22:39 | 16.59198 | -61.68655 | 6723 ft | 285 kts | 182° |
| 2026-05-03 22:39 | 16.57233 | -61.68856 | 6289 ft | 283 kts | 182° |
| 2026-05-03 22:39 | 16.55277 | -61.69056 | 5865 ft | 281 kts | 182° |
| 2026-05-03 22:40 | 16.53338 | -61.69257 | 5445 ft | 279 kts | 182° |
| 2026-05-03 22:40 | 16.52061 | -61.69389 | 5166 ft | 278 kts | 182° |
| 2026-05-03 22:40 | 16.50147 | -61.69586 | 4745 ft | 275 kts | 182° |
| 2026-05-03 22:40 | 16.48249 | -61.69780 | 4305 ft | 274 kts | 182° |
| 2026-05-03 22:41 | 16.46371 | -61.69971 | 4022 ft | 267 kts | 182° |
| 2026-05-03 22:41 | 16.44560 | -61.70162 | 3812 ft | 258 kts | 183° |
| 2026-05-03 22:41 | 16.42803 | -61.70387 | 3643 ft | 249 kts | 184° |
| 2026-05-03 22:41 | 16.41158 | -61.70618 | 3631 ft | 228 kts | 184° |
| 2026-05-03 22:42 | 16.39662 | -61.70835 | 3631 ft | 206 kts | 184° |
| 2026-05-03 22:42 | 16.38332 | -61.71030 | 3644 ft | 180 kts | 184° |
| 2026-05-03 22:42 | 16.37154 | -61.71201 | 3628 ft | 165 kts | 182° |
| 2026-05-03 22:42 | 16.36034 | -61.71357 | 3630 ft | 161 kts | 183° |
| 2026-05-03 22:43 | 16.34929 | -61.71509 | 3630 ft | 159 kts | 182° |
| 2026-05-03 22:43 | 16.33826 | -61.71659 | 3630 ft | 160 kts | 183° |
| 2026-05-03 22:43 | 16.32726 | -61.71809 | 3629 ft | 159 kts | 182° |
| 2026-05-03 22:43 | 16.31624 | -61.71946 | 3630 ft | 159 kts | 176° |
| 2026-05-03 22:44 | 16.30579 | -61.71683 | 3450 ft | 155 kts | 146° |
| 2026-05-03 22:44 | 16.29871 | -61.70893 | 3249 ft | 149 kts | 115° |
| 2026-05-03 22:44 | 16.29607 | -61.69856 | 3052 ft | 148 kts | 101° |
| 2026-05-03 22:44 | 16.29416 | -61.68817 | 2855 ft | 145 kts | 100° |
| 2026-05-03 22:45 | 16.29228 | -61.67797 | 2659 ft | 142 kts | 100° |
| 2026-05-03 22:45 | 16.29045 | -61.66804 | 2465 ft | 138 kts | 99° |
| 2026-05-03 22:45 | 16.28865 | -61.65827 | 2276 ft | 138 kts | 101° |
| 2026-05-03 22:45 | 16.28685 | -61.64851 | 2087 ft | 136 kts | 100° |
| 2026-05-03 22:46 | 16.28508 | -61.63891 | 1900 ft | 136 kts | 101° |
| 2026-05-03 22:46 | 16.28330 | -61.62924 | 1704 ft | 135 kts | 102° |
| 2026-05-03 22:46 | 16.28153 | -61.61965 | 1518 ft | 135 kts | 100° |
| 2026-05-03 22:46 | 16.27977 | -61.61016 | 1338 ft | 133 kts | 100° |
| 2026-05-03 22:47 | 16.27803 | -61.60069 | 1155 ft | 133 kts | 100° |
| 2026-05-03 22:47 | 16.27625 | -61.59109 | 982 ft | 136 kts | 101° |
| 2026-05-03 22:47 | 16.27447 | -61.58144 | 803 ft | 136 kts | 101° |
| 2026-05-03 22:47 | 16.27271 | -61.57194 | 622 ft | 133 kts | 101° |
| 2026-05-03 22:48 | 16.27097 | -61.56249 | 434 ft | 133 kts | 103° |
| 2026-05-03 22:48 | 16.26922 | -61.55307 | 249 ft | 135 kts | 102° |
| 2026-05-03 22:48 | 16.26742 | -61.54351 | 31 ft | 133 kts | 102° |
| 2026-05-03 22:48 | 16.26582 | -61.53481 | 26 ft | 111 kts | 103° |
| 2026-05-03 22:49 | 16.26493 | -61.53021 | 27 ft | 34 kts | 97° |
| 2026-05-03 22:49 | 16.26443 | -61.52875 | 28 ft | 12 kts | 155° |
| 2026-05-03 22:49 | 16.26370 | -61.52876 | 29 ft | 10 kts | 191° |
| 2026-05-03 22:49 | 16.26308 | -61.52885 | 30 ft | 8 kts | 169° |
| 2026-05-03 22:50 | 16.26280 | -61.52844 | 30 ft | 7 kts | 101° |
| 2026-05-03 22:50 | 16.26273 | -61.52792 | 31 ft | 9 kts | 98° |
| 2026-05-03 22:50 | 16.26264 | -61.52731 | 31 ft | 10 kts | 98° |
| 2026-05-03 22:50 | 16.26265 | -61.52660 | 32 ft | 10 kts | 72° |
| 2026-05-03 22:51 | 16.26288 | -61.52595 | 32 ft | 9 kts | 82° |
| 2026-05-03 22:51 | 16.26281 | -61.52530 | 33 ft | 9 kts | 101° |
| 2026-05-03 22:51 | 16.26270 | -61.52469 | 34 ft | 8 kts | 104° |
| 2026-05-03 22:51 | 16.26236 | -61.52445 | 34 ft | 5 kts | 197° |
| 2026-05-03 22:52 | 16.26217 | -61.52447 | 34 ft | 0 kts | 186° |